sensor_id;sensor_type;location;lat;lon;timestamp;temperature;humidity
2767;DHT22;1391;46.74287300;11.63683300;2024-03-23T00:54:27;6.00;33.60
2767;DHT22;1391;46.74287300;11.63683300;2024-03-23T00:56:55;6.40;29.80
2767;DHT22;1391;46.74287300;11.63683300;2024-03-23T00:59:24;6.10;27.10
2767;DHT22;1391;46.74287300;11.63683300;2024-03-23T01:01:53;6.40;26.00
2767;DHT22;1391;46.74287300;11.63683300;2024-03-23T01:04:21;6.50;27.40
2767;DHT22;1391;46.74287300;11.63683300;2024-03-23T01:06:48;6.40;28.10
2767;DHT22;1391;46.74287300;11.63683300;2024-03-23T01:09:18;5.70;33.00
2767;DHT22;1391;46.74287300;11.63683300;2024-03-23T01:11:44;5.70;35.40
2767;DHT22;1391;46.74287300;11.63683300;2024-03-23T01:14:13;6.10;36.60
2767;DHT22;1391;46.74287300;11.63683300;2024-03-23T01:16:52;5.70;37.60
2767;DHT22;1391;46.74287300;11.63683300;2024-03-23T01:19:20;5.60;41.00
2767;DHT22;1391;46.74287300;11.63683300;2024-03-23T01:21:46;5.00;47.20
2767;DHT22;1391;46.74287300;11.63683300;2024-03-23T01:24:15;5.10;53.30
2767;DHT22;1391;46.74287300;11.63683300;2024-03-23T01:26:41;5.10;53.30
2767;DHT22;1391;46.74287300;11.63683300;2024-03-23T01:29:08;5.10;52.30
2767;DHT22;1391;46.74287300;11.63683300;2024-03-23T01:31:34;5.30;56.10
2767;DHT22;1391;46.74287300;11.63683300;2024-03-23T01:34:04;5.10;58.60
2767;DHT22;1391;46.74287300;11.63683300;2024-03-23T01:36:30;5.50;55.40
2767;DHT22;1391;46.74287300;11.63683300;2024-03-23T01:38:58;5.10;56.10
2767;DHT22;1391;46.74287300;11.63683300;2024-03-23T01:41:24;5.00;54.80
2767;DHT22;1391;46.74287300;11.63683300;2024-03-23T01:43:55;5.00;54.80
2767;DHT22;1391;46.74287300;11.63683300;2024-03-23T01:46:22;5.60;55.20
2767;DHT22;1391;46.74287300;11.63683300;2024-03-23T01:48:50;5.00;57.60
2767;DHT22;1391;46.74287300;11.63683300;2024-03-23T01:51:18;5.60;55.20
2767;DHT22;1391;46.74287300;11.63683300;2024-03-23T01:53:49;4.90;52.50
2767;DHT22;1391;46.74287300;11.63683300;2024-03-23T01:56:17;5.00;51.80
2767;DHT22;1391;46.74287300;11.63683300;2024-03-23T01:58:45;5.20;53.80
2767;DHT22;1391;46.74287300;11.63683300;2024-03-23T02:01:11;4.90;53.10
2767;DHT22;1391;46.74287300;11.63683300;2024-03-23T02:03:38;5.20;51.40
2767;DHT22;1391;46.74287300;11.63683300;2024-03-23T02:06:05;5.10;52.30
2767;DHT22;1391;46.74287300;11.63683300;2024-03-23T02:08:34;5.00;55.70
2767;DHT22;1391;46.74287300;11.63683300;2024-03-23T02:11:01;5.00;57.90
2767;DHT22;1391;46.74287300;11.63683300;2024-03-23T02:13:28;5.10;60.00
2767;DHT22;1391;46.74287300;11.63683300;2024-03-23T02:15:54;5.20;63.70
2767;DHT22;1391;46.74287300;11.63683300;2024-03-23T02:18:22;4.60;63.30
2767;DHT22;1391;46.74287300;11.63683300;2024-03-23T02:20:48;4.70;61.30
2767;DHT22;1391;46.74287300;11.63683300;2024-03-23T02:23:17;4.70;60.00
2767;DHT22;1391;46.74287300;11.63683300;2024-03-23T02:25:44;5.00;56.10
2767;DHT22;1391;46.74287300;11.63683300;2024-03-23T02:28:11;5.00;58.00
2767;DHT22;1391;46.74287300;11.63683300;2024-03-23T02:30:38;4.60;58.70
2767;DHT22;1391;46.74287300;11.63683300;2024-03-23T02:33:05;4.60;59.40
2767;DHT22;1391;46.74287300;11.63683300;2024-03-23T02:35:32;4.60;62.30
2767;DHT22;1391;46.74287300;11.63683300;2024-03-23T02:38:00;5.00;63.30
2767;DHT22;1391;46.74287300;11.63683300;2024-03-23T02:40:28;4.40;61.50
2767;DHT22;1391;46.74287300;11.63683300;2024-03-23T02:42:56;4.70;64.70
2767;DHT22;1391;46.74287300;11.63683300;2024-03-23T02:45:22;4.70;66.20
2767;DHT22;1391;46.74287300;11.63683300;2024-03-23T02:47:50;4.70;67.50
2767;DHT22;1391;46.74287300;11.63683300;2024-03-23T02:50:18;4.70;67.90
2767;DHT22;1391;46.74287300;11.63683300;2024-03-23T02:52:46;4.60;67.60
2767;DHT22;1391;46.74287300;11.63683300;2024-03-23T02:55:12;4.70;65.20
2767;DHT22;1391;46.74287300;11.63683300;2024-03-23T02:57:42;4.40;70.10
2767;DHT22;1391;46.74287300;11.63683300;2024-03-23T03:00:09;4.30;71.30
2767;DHT22;1391;46.74287300;11.63683300;2024-03-23T03:02:37;4.40;70.10
2767;DHT22;1391;46.74287300;11.63683300;2024-03-23T03:05:03;4.30;71.00
2767;DHT22;1391;46.74287300;11.63683300;2024-03-23T03:07:32;4.40;70.30
2767;DHT22;1391;46.74287300;11.63683300;2024-03-23T03:09:59;4.60;68.30
2767;DHT22;1391;46.74287300;11.63683300;2024-03-23T03:12:26;4.60;66.70
2767;DHT22;1391;46.74287300;11.63683300;2024-03-23T03:14:54;4.40;65.90
2767;DHT22;1391;46.74287300;11.63683300;2024-03-23T03:17:22;4.20;65.00
2767;DHT22;1391;46.74287300;11.63683300;2024-03-23T03:19:49;4.70;66.20
2767;DHT22;1391;46.74287300;11.63683300;2024-03-23T03:22:21;4.60;66.70
2767;DHT22;1391;46.74287300;11.63683300;2024-03-23T03:24:47;4.40;68.80
2767;DHT22;1391;46.74287300;11.63683300;2024-03-23T03:27:14;4.50;73.90
2767;DHT22;1391;46.74287300;11.63683300;2024-03-23T03:29:41;4.20;75.20
2767;DHT22;1391;46.74287300;11.63683300;2024-03-23T03:32:14;4.30;77.00
2767;DHT22;1391;46.74287300;11.63683300;2024-03-23T03:34:40;4.40;76.40
2767;DHT22;1391;46.74287300;11.63683300;2024-03-23T03:37:07;4.40;73.90
2767;DHT22;1391;46.74287300;11.63683300;2024-03-23T03:39:33;4.30;72.40
2767;DHT22;1391;46.74287300;11.63683300;2024-03-23T03:42:01;4.40;73.40
2767;DHT22;1391;46.74287300;11.63683300;2024-03-23T03:44:32;4.20;75.80
2767;DHT22;1391;46.74287300;11.63683300;2024-03-23T03:46:59;4.80;74.20
2767;DHT22;1391;46.74287300;11.63683300;2024-03-23T03:49:27;4.60;72.80
2767;DHT22;1391;46.74287300;11.63683300;2024-03-23T03:51:54;4.40;71.40
2767;DHT22;1391;46.74287300;11.63683300;2024-03-23T03:54:21;4.50;71.80
2767;DHT22;1391;46.74287300;11.63683300;2024-03-23T03:56:48;4.30;73.80
2767;DHT22;1391;46.74287300;11.63683300;2024-03-23T03:59:15;4.10;77.10
2767;DHT22;1391;46.74287300;11.63683300;2024-03-23T04:01:42;4.00;80.20
2767;DHT22;1391;46.74287300;11.63683300;2024-03-23T04:04:08;4.40;80.20
2767;DHT22;1391;46.74287300;11.63683300;2024-03-23T04:06:37;4.40;77.60
2767;DHT22;1391;46.74287300;11.63683300;2024-03-23T04:09:03;4.30;76.00
2767;DHT22;1391;46.74287300;11.63683300;2024-03-23T04:11:32;4.70;75.60
2767;DHT22;1391;46.74287300;11.63683300;2024-03-23T04:13:58;4.40;77.00
2767;DHT22;1391;46.74287300;11.63683300;2024-03-23T04:16:26;4.40;77.40
2767;DHT22;1391;46.74287300;11.63683300;2024-03-23T04:18:53;4.60;74.60
2767;DHT22;1391;46.74287300;11.63683300;2024-03-23T04:21:21;4.50;77.30
2767;DHT22;1391;46.74287300;11.63683300;2024-03-23T04:23:48;4.50;80.20
2767;DHT22;1391;46.74287300;11.63683300;2024-03-23T04:26:16;4.30;83.60
2767;DHT22;1391;46.74287300;11.63683300;2024-03-23T04:28:42;4.20;84.90
2767;DHT22;1391;46.74287300;11.63683300;2024-03-23T04:31:09;4.40;87.30
2767;DHT22;1391;46.74287300;11.63683300;2024-03-23T04:33:36;4.20;86.60
2767;DHT22;1391;46.74287300;11.63683300;2024-03-23T04:36:03;4.40;85.10
2767;DHT22;1391;46.74287300;11.63683300;2024-03-23T04:38:30;4.30;82.60
2767;DHT22;1391;46.74287300;11.63683300;2024-03-23T04:40:59;4.40;80.90
2767;DHT22;1391;46.74287300;11.63683300;2024-03-23T04:43:27;4.30;78.00
2767;DHT22;1391;46.74287300;11.63683300;2024-03-23T04:45:55;4.20;75.80
2767;DHT22;1391;46.74287300;11.63683300;2024-03-23T04:48:22;4.20;74.20
2767;DHT22;1391;46.74287300;11.63683300;2024-03-23T04:50:54;4.40;76.30
2767;DHT22;1391;46.74287300;11.63683300;2024-03-23T04:53:23;4.20;79.00
2767;DHT22;1391;46.74287300;11.63683300;2024-03-23T04:55:54;4.00;80.90
2767;DHT22;1391;46.74287300;11.63683300;2024-03-23T04:58:21;4.10;79.90
2767;DHT22;1391;46.74287300;11.63683300;2024-03-23T05:00:53;4.40;79.40
2767;DHT22;1391;46.74287300;11.63683300;2024-03-23T05:03:20;4.10;77.50
2767;DHT22;1391;46.74287300;11.63683300;2024-03-23T05:05:47;4.00;79.70
2767;DHT22;1391;46.74287300;11.63683300;2024-03-23T05:08:14;4.10;81.40
2767;DHT22;1391;46.74287300;11.63683300;2024-03-23T05:10:42;3.90;83.50
2767;DHT22;1391;46.74287300;11.63683300;2024-03-23T05:13:09;4.20;84.20
2767;DHT22;1391;46.74287300;11.63683300;2024-03-23T05:15:37;3.80;84.00
2767;DHT22;1391;46.74287300;11.63683300;2024-03-23T05:18:05;3.80;88.80
2767;DHT22;1391;46.74287300;11.63683300;2024-03-23T05:20:33;3.70;90.30
2767;DHT22;1391;46.74287300;11.63683300;2024-03-23T05:22:59;4.10;90.50
2767;DHT22;1391;46.74287300;11.63683300;2024-03-23T05:25:27;3.90;88.20
2767;DHT22;1391;46.74287300;11.63683300;2024-03-23T05:27:53;4.40;86.10
2767;DHT22;1391;46.74287300;11.63683300;2024-03-23T05:30:20;3.90;85.70
2767;DHT22;1391;46.74287300;11.63683300;2024-03-23T05:32:48;3.80;86.30
2767;DHT22;1391;46.74287300;11.63683300;2024-03-23T05:35:15;3.90;84.80
2767;DHT22;1391;46.74287300;11.63683300;2024-03-23T05:37:41;3.80;86.40
2767;DHT22;1391;46.74287300;11.63683300;2024-03-23T05:40:10;4.10;87.70
2767;DHT22;1391;46.74287300;11.63683300;2024-03-23T05:42:38;4.10;90.10
2767;DHT22;1391;46.74287300;11.63683300;2024-03-23T05:45:06;4.00;91.20
2767;DHT22;1391;46.74287300;11.63683300;2024-03-23T05:47:33;4.00;92.70
2767;DHT22;1391;46.74287300;11.63683300;2024-03-23T05:50:02;4.40;94.10
2767;DHT22;1391;46.74287300;11.63683300;2024-03-23T05:52:29;4.10;94.50
2767;DHT22;1391;46.74287300;11.63683300;2024-03-23T05:54:56;4.40;95.30
2767;DHT22;1391;46.74287300;11.63683300;2024-03-23T05:57:24;4.30;93.90
2767;DHT22;1391;46.74287300;11.63683300;2024-03-23T05:59:51;4.40;91.90
2767;DHT22;1391;46.74287300;11.63683300;2024-03-23T06:02:18;4.40;90.10
2767;DHT22;1391;46.74287300;11.63683300;2024-03-23T06:04:45;4.60;87.20
2767;DHT22;1391;46.74287300;11.63683300;2024-03-23T06:07:13;4.60;86.30
2767;DHT22;1391;46.74287300;11.63683300;2024-03-23T06:09:40;4.70;85.60
2767;DHT22;1391;46.74287300;11.63683300;2024-03-23T06:12:07;4.70;87.50
2767;DHT22;1391;46.74287300;11.63683300;2024-03-23T06:14:35;4.80;86.90
2767;DHT22;1391;46.74287300;11.63683300;2024-03-23T06:17:01;4.50;89.00
2767;DHT22;1391;46.74287300;11.63683300;2024-03-23T06:19:28;4.90;90.30
2767;DHT22;1391;46.74287300;11.63683300;2024-03-23T06:21:55;4.90;90.50
2767;DHT22;1391;46.74287300;11.63683300;2024-03-23T06:24:23;5.00;89.70
2767;DHT22;1391;46.74287300;11.63683300;2024-03-23T06:26:50;5.10;90.20
2767;DHT22;1391;46.74287300;11.63683300;2024-03-23T06:29:17;5.60;76.00
2767;DHT22;1391;46.74287300;11.63683300;2024-03-23T06:31:53;5.40;61.50
2767;DHT22;1391;46.74287300;11.63683300;2024-03-23T06:34:19;5.70;52.80
2767;DHT22;1391;46.74287300;11.63683300;2024-03-23T06:36:47;5.80;51.30
2767;DHT22;1391;46.74287300;11.63683300;2024-03-23T06:39:13;6.30;41.40
2767;DHT22;1391;46.74287300;11.63683300;2024-03-23T06:41:42;6.10;38.30
2767;DHT22;1391;46.74287300;11.63683300;2024-03-23T06:44:13;6.10;34.90
2767;DHT22;1391;46.74287300;11.63683300;2024-03-23T06:46:40;6.50;30.80
2767;DHT22;1391;46.74287300;11.63683300;2024-03-23T06:49:06;6.60;29.00
2767;DHT22;1391;46.74287300;11.63683300;2024-03-23T06:51:33;6.80;29.60
2767;DHT22;1391;46.74287300;11.63683300;2024-03-23T06:54:00;6.50;26.90
2767;DHT22;1391;46.74287300;11.63683300;2024-03-23T06:56:27;6.40;27.20
2767;DHT22;1391;46.74287300;11.63683300;2024-03-23T06:58:55;6.40;26.90
2767;DHT22;1391;46.74287300;11.63683300;2024-03-23T07:01:22;6.70;27.90
2767;DHT22;1391;46.74287300;11.63683300;2024-03-23T07:03:49;7.20;27.00
2767;DHT22;1391;46.74287300;11.63683300;2024-03-23T07:06:16;6.80;31.80
2767;DHT22;1391;46.74287300;11.63683300;2024-03-23T07:08:42;6.50;31.20
2767;DHT22;1391;46.74287300;11.63683300;2024-03-23T07:11:09;6.50;33.50
2767;DHT22;1391;46.74287300;11.63683300;2024-03-23T07:13:35;6.90;33.80
2767;DHT22;1391;46.74287300;11.63683300;2024-03-23T07:16:04;6.60;33.40
2767;DHT22;1391;46.74287300;11.63683300;2024-03-23T07:18:31;6.70;32.10
2767;DHT22;1391;46.74287300;11.63683300;2024-03-23T07:21:00;6.70;32.00
2767;DHT22;1391;46.74287300;11.63683300;2024-03-23T07:23:26;6.40;32.60
2767;DHT22;1391;46.74287300;11.63683300;2024-03-23T07:25:57;6.70;34.30
2767;DHT22;1391;46.74287300;11.63683300;2024-03-23T07:28:23;6.80;32.60
2767;DHT22;1391;46.74287300;11.63683300;2024-03-23T07:31:05;6.80;33.50
2767;DHT22;1391;46.74287300;11.63683300;2024-03-23T07:33:32;6.80;36.10
2767;DHT22;1391;46.74287300;11.63683300;2024-03-23T07:36:00;7.20;31.10
2767;DHT22;1391;46.74287300;11.63683300;2024-03-23T07:38:27;6.90;29.00
2767;DHT22;1391;46.74287300;11.63683300;2024-03-23T07:41:03;7.60;28.40
2767;DHT22;1391;46.74287300;11.63683300;2024-03-23T07:43:30;7.50;22.80
2767;DHT22;1391;46.74287300;11.63683300;2024-03-23T07:45:58;7.90;22.60
2767;DHT22;1391;46.74287300;11.63683300;2024-03-23T07:48:26;8.30;17.20
2767;DHT22;1391;46.74287300;11.63683300;2024-03-23T07:51:02;8.30;11.40
2767;DHT22;1391;46.74287300;11.63683300;2024-03-23T07:53:30;8.30;10.50
2767;DHT22;1391;46.74287300;11.63683300;2024-03-23T07:55:59;8.60;10.00
2767;DHT22;1391;46.74287300;11.63683300;2024-03-23T07:58:27;8.60;8.90
2767;DHT22;1391;46.74287300;11.63683300;2024-03-23T08:00:56;9.10;7.40
2767;DHT22;1391;46.74287300;11.63683300;2024-03-23T08:03:22;9.50;3.20
2767;DHT22;1391;46.74287300;11.63683300;2024-03-23T08:05:51;9.50;2.70
2767;DHT22;1391;46.74287300;11.63683300;2024-03-23T08:08:18;9.80;1.50
2767;DHT22;1391;46.74287300;11.63683300;2024-03-23T08:10:49;10.00;1.00
2767;DHT22;1391;46.74287300;11.63683300;2024-03-23T08:13:16;10.20;1.00
2767;DHT22;1391;46.74287300;11.63683300;2024-03-23T08:15:43;10.60;1.00
2767;DHT22;1391;46.74287300;11.63683300;2024-03-23T08:18:12;10.50;1.00
2767;DHT22;1391;46.74287300;11.63683300;2024-03-23T08:20:39;10.80;1.00
2767;DHT22;1391;46.74287300;11.63683300;2024-03-23T08:23:09;10.90;1.00
2767;DHT22;1391;46.74287300;11.63683300;2024-03-23T08:25:35;11.20;1.00
2767;DHT22;1391;46.74287300;11.63683300;2024-03-23T08:28:03;12.10;1.00
2767;DHT22;1391;46.74287300;11.63683300;2024-03-23T08:30:29;11.30;1.00
2767;DHT22;1391;46.74287300;11.63683300;2024-03-23T08:32:57;11.60;1.00
2767;DHT22;1391;46.74287300;11.63683300;2024-03-23T08:35:23;10.80;1.00
2767;DHT22;1391;46.74287300;11.63683300;2024-03-23T08:37:50;10.90;1.00
2767;DHT22;1391;46.74287300;11.63683300;2024-03-23T08:40:18;11.60;1.00
2767;DHT22;1391;46.74287300;11.63683300;2024-03-23T08:42:45;11.60;1.00
2767;DHT22;1391;46.74287300;11.63683300;2024-03-23T08:45:11;11.60;1.00
2767;DHT22;1391;46.74287300;11.63683300;2024-03-23T08:47:40;11.60;1.00
2767;DHT22;1391;46.74287300;11.63683300;2024-03-23T08:50:08;12.60;1.00
2767;DHT22;1391;46.74287300;11.63683300;2024-03-23T08:52:36;12.10;1.00
2767;DHT22;1391;46.74287300;11.63683300;2024-03-23T08:55:03;12.20;1.00
2767;DHT22;1391;46.74287300;11.63683300;2024-03-23T08:57:34;12.20;1.00
2767;DHT22;1391;46.74287300;11.63683300;2024-03-23T09:00:01;12.50;1.00
2767;DHT22;1391;46.74287300;11.63683300;2024-03-23T09:02:29;12.60;1.00
2767;DHT22;1391;46.74287300;11.63683300;2024-03-23T09:04:56;12.50;1.00
2767;DHT22;1391;46.74287300;11.63683300;2024-03-23T09:07:30;12.60;1.00
2767;DHT22;1391;46.74287300;11.63683300;2024-03-23T09:09:57;12.60;1.00
2767;DHT22;1391;46.74287300;11.63683300;2024-03-23T09:12:25;12.70;1.00
2767;DHT22;1391;46.74287300;11.63683300;2024-03-23T09:14:53;13.20;1.00
2767;DHT22;1391;46.74287300;11.63683300;2024-03-23T09:17:21;13.50;1.00
2767;DHT22;1391;46.74287300;11.63683300;2024-03-23T09:19:48;13.50;1.00
2767;DHT22;1391;46.74287300;11.63683300;2024-03-23T09:22:15;13.50;1.00
2767;DHT22;1391;46.74287300;11.63683300;2024-03-23T09:24:42;13.50;1.00
2767;DHT22;1391;46.74287300;11.63683300;2024-03-23T09:27:09;13.90;1.00
2767;DHT22;1391;46.74287300;11.63683300;2024-03-23T09:29:36;13.30;1.00
2767;DHT22;1391;46.74287300;11.63683300;2024-03-23T09:32:05;14.20;1.00
2767;DHT22;1391;46.74287300;11.63683300;2024-03-23T09:34:32;13.60;1.00
2767;DHT22;1391;46.74287300;11.63683300;2024-03-23T09:36:59;13.60;1.00
2767;DHT22;1391;46.74287300;11.63683300;2024-03-23T09:39:25;14.00;1.00
2767;DHT22;1391;46.74287300;11.63683300;2024-03-23T09:41:56;13.50;1.00
2767;DHT22;1391;46.74287300;11.63683300;2024-03-23T09:44:24;14.20;1.00
2767;DHT22;1391;46.74287300;11.63683300;2024-03-23T09:46:55;14.40;1.00
2767;DHT22;1391;46.74287300;11.63683300;2024-03-23T09:49:23;14.60;1.00
2767;DHT22;1391;46.74287300;11.63683300;2024-03-23T09:51:51;15.20;1.00
2767;DHT22;1391;46.74287300;11.63683300;2024-03-23T09:54:17;15.10;1.00
2767;DHT22;1391;46.74287300;11.63683300;2024-03-23T09:56:46;15.20;1.00
2767;DHT22;1391;46.74287300;11.63683300;2024-03-23T09:59:12;16.10;1.00
2767;DHT22;1391;46.74287300;11.63683300;2024-03-23T10:01:40;15.90;1.00
2767;DHT22;1391;46.74287300;11.63683300;2024-03-23T10:04:06;16.30;1.00
2767;DHT22;1391;46.74287300;11.63683300;2024-03-23T10:06:36;15.20;1.00
2767;DHT22;1391;46.74287300;11.63683300;2024-03-23T10:09:17;15.80;1.00
2767;DHT22;1391;46.74287300;11.63683300;2024-03-23T10:11:45;15.50;1.00
2767;DHT22;1391;46.74287300;11.63683300;2024-03-23T10:14:29;15.20;1.00
2767;DHT22;1391;46.74287300;11.63683300;2024-03-23T10:17:12;14.60;1.00
2767;DHT22;1391;46.74287300;11.63683300;2024-03-23T10:19:43;14.50;1.00
2767;DHT22;1391;46.74287300;11.63683300;2024-03-23T10:22:14;14.90;1.00
2767;DHT22;1391;46.74287300;11.63683300;2024-03-23T10:24:43;15.00;1.00
2767;DHT22;1391;46.74287300;11.63683300;2024-03-23T10:27:15;15.00;1.00
2767;DHT22;1391;46.74287300;11.63683300;2024-03-23T10:29:43;14.60;1.00
2767;DHT22;1391;46.74287300;11.63683300;2024-03-23T10:32:12;16.00;1.00
2767;DHT22;1391;46.74287300;11.63683300;2024-03-23T10:34:39;15.80;1.00
2767;DHT22;1391;46.74287300;11.63683300;2024-03-23T10:37:08;16.40;1.00
2767;DHT22;1391;46.74287300;11.63683300;2024-03-23T10:39:36;16.40;1.00
2767;DHT22;1391;46.74287300;11.63683300;2024-03-23T10:42:06;16.50;1.00
2767;DHT22;1391;46.74287300;11.63683300;2024-03-23T10:44:34;15.90;1.00
2767;DHT22;1391;46.74287300;11.63683300;2024-03-23T10:47:04;16.00;1.00
2767;DHT22;1391;46.74287300;11.63683300;2024-03-23T10:49:32;15.70;1.00
2767;DHT22;1391;46.74287300;11.63683300;2024-03-23T10:52:02;16.60;1.00
2767;DHT22;1391;46.74287300;11.63683300;2024-03-23T10:54:30;16.50;1.00
2767;DHT22;1391;46.74287300;11.63683300;2024-03-23T10:57:05;16.60;1.00
2767;DHT22;1391;46.74287300;11.63683300;2024-03-23T10:59:39;16.90;1.00
2767;DHT22;1391;46.74287300;11.63683300;2024-03-23T11:02:07;16.30;1.00
2767;DHT22;1391;46.74287300;11.63683300;2024-03-23T11:04:44;15.20;1.00
2767;DHT22;1391;46.74287300;11.63683300;2024-03-23T11:07:30;15.80;1.00
2767;DHT22;1391;46.74287300;11.63683300;2024-03-23T11:09:58;15.10;1.00
2767;DHT22;1391;46.74287300;11.63683300;2024-03-23T11:12:28;15.60;1.00
2767;DHT22;1391;46.74287300;11.63683300;2024-03-23T11:15:01;15.90;1.00
2767;DHT22;1391;46.74287300;11.63683300;2024-03-23T11:17:31;16.00;1.00
2767;DHT22;1391;46.74287300;11.63683300;2024-03-23T11:19:59;15.80;1.00
2767;DHT22;1391;46.74287300;11.63683300;2024-03-23T11:22:40;16.10;1.00
2767;DHT22;1391;46.74287300;11.63683300;2024-03-23T11:25:18;16.40;1.00
2767;DHT22;1391;46.74287300;11.63683300;2024-03-23T11:27:51;16.40;1.00
2767;DHT22;1391;46.74287300;11.63683300;2024-03-23T11:30:19;16.70;1.00
2767;DHT22;1391;46.74287300;11.63683300;2024-03-23T11:32:48;16.40;1.00
2767;DHT22;1391;46.74287300;11.63683300;2024-03-23T11:35:29;16.70;1.00
2767;DHT22;1391;46.74287300;11.63683300;2024-03-23T11:38:03;15.90;1.00
2767;DHT22;1391;46.74287300;11.63683300;2024-03-23T11:40:32;15.90;1.00
2767;DHT22;1391;46.74287300;11.63683300;2024-03-23T11:43:04;15.80;1.00
2767;DHT22;1391;46.74287300;11.63683300;2024-03-23T11:45:35;16.40;1.00
2767;DHT22;1391;46.74287300;11.63683300;2024-03-23T11:48:07;16.50;1.00
2767;DHT22;1391;46.74287300;11.63683300;2024-03-23T11:50:39;16.60;1.00
2767;DHT22;1391;46.74287300;11.63683300;2024-03-23T11:53:13;16.50;1.00
2767;DHT22;1391;46.74287300;11.63683300;2024-03-23T11:55:43;17.10;1.00
2767;DHT22;1391;46.74287300;11.63683300;2024-03-23T11:58:13;17.10;1.00
2767;DHT22;1391;46.74287300;11.63683300;2024-03-23T12:00:40;17.10;1.00
2767;DHT22;1391;46.74287300;11.63683300;2024-03-23T12:03:09;17.10;1.00
2767;DHT22;1391;46.74287300;11.63683300;2024-03-23T12:05:37;17.10;1.00
2767;DHT22;1391;46.74287300;11.63683300;2024-03-23T12:08:18;17.00;1.00
2767;DHT22;1391;46.74287300;11.63683300;2024-03-23T12:10:49;16.50;1.00
2767;DHT22;1391;46.74287300;11.63683300;2024-03-23T12:13:20;16.30;1.00
2767;DHT22;1391;46.74287300;11.63683300;2024-03-23T12:15:50;16.40;1.00
2767;DHT22;1391;46.74287300;11.63683300;2024-03-23T12:18:18;16.50;1.00
2767;DHT22;1391;46.74287300;11.63683300;2024-03-23T12:20:50;16.20;1.00
2767;DHT22;1391;46.74287300;11.63683300;2024-03-23T12:23:17;16.50;1.00
2767;DHT22;1391;46.74287300;11.63683300;2024-03-23T12:25:44;16.30;1.00
2767;DHT22;1391;46.74287300;11.63683300;2024-03-23T12:28:11;16.40;1.00
2767;DHT22;1391;46.74287300;11.63683300;2024-03-23T12:30:40;16.50;1.00
2767;DHT22;1391;46.74287300;11.63683300;2024-03-23T12:33:07;16.20;1.00
2767;DHT22;1391;46.74287300;11.63683300;2024-03-23T12:35:34;16.50;1.00
2767;DHT22;1391;46.74287300;11.63683300;2024-03-23T12:38:01;16.40;1.00
2767;DHT22;1391;46.74287300;11.63683300;2024-03-23T12:40:28;16.10;1.00
2767;DHT22;1391;46.74287300;11.63683300;2024-03-23T12:42:56;16.40;1.00
2767;DHT22;1391;46.74287300;11.63683300;2024-03-23T12:45:22;16.50;1.00
2767;DHT22;1391;46.74287300;11.63683300;2024-03-23T12:47:51;15.80;1.00
2767;DHT22;1391;46.74287300;11.63683300;2024-03-23T12:50:19;15.90;1.00
2767;DHT22;1391;46.74287300;11.63683300;2024-03-23T12:52:47;15.90;1.00
2767;DHT22;1391;46.74287300;11.63683300;2024-03-23T12:55:13;15.20;1.00
2767;DHT22;1391;46.74287300;11.63683300;2024-03-23T12:57:41;15.40;1.00
2767;DHT22;1391;46.74287300;11.63683300;2024-03-23T13:00:08;15.20;1.00
2767;DHT22;1391;46.74287300;11.63683300;2024-03-23T13:02:37;15.50;1.00
2767;DHT22;1391;46.74287300;11.63683300;2024-03-23T13:05:06;15.50;1.00
2767;DHT22;1391;46.74287300;11.63683300;2024-03-23T13:07:35;15.10;1.00
2767;DHT22;1391;46.74287300;11.63683300;2024-03-23T13:10:03;15.20;1.00
2767;DHT22;1391;46.74287300;11.63683300;2024-03-23T13:12:31;15.00;1.00
2767;DHT22;1391;46.74287300;11.63683300;2024-03-23T13:14:58;15.00;1.00
2767;DHT22;1391;46.74287300;11.63683300;2024-03-23T13:17:26;15.00;1.00
2767;DHT22;1391;46.74287300;11.63683300;2024-03-23T13:19:52;14.60;1.00
2767;DHT22;1391;46.74287300;11.63683300;2024-03-23T13:22:22;15.00;1.00
2767;DHT22;1391;46.74287300;11.63683300;2024-03-23T13:24:48;14.60;1.00
2767;DHT22;1391;46.74287300;11.63683300;2024-03-23T13:27:16;14.60;1.00
2767;DHT22;1391;46.74287300;11.63683300;2024-03-23T13:29:43;14.60;1.00
2767;DHT22;1391;46.74287300;11.63683300;2024-03-23T13:32:11;14.50;1.00
2767;DHT22;1391;46.74287300;11.63683300;2024-03-23T13:34:38;14.90;1.00
2767;DHT22;1391;46.74287300;11.63683300;2024-03-23T13:37:05;14.70;1.00
2767;DHT22;1391;46.74287300;11.63683300;2024-03-23T13:39:34;14.80;1.00
2767;DHT22;1391;46.74287300;11.63683300;2024-03-23T13:42:01;15.30;1.00
2767;DHT22;1391;46.74287300;11.63683300;2024-03-23T13:44:34;15.30;1.00
2767;DHT22;1391;46.74287300;11.63683300;2024-03-23T13:47:02;15.20;1.00
2767;DHT22;1391;46.74287300;11.63683300;2024-03-23T13:49:30;15.00;1.00
2767;DHT22;1391;46.74287300;11.63683300;2024-03-23T13:51:58;15.00;1.00
2767;DHT22;1391;46.74287300;11.63683300;2024-03-23T13:54:24;15.00;1.00
2767;DHT22;1391;46.74287300;11.63683300;2024-03-23T13:56:54;15.00;1.00
2767;DHT22;1391;46.74287300;11.63683300;2024-03-23T13:59:21;14.70;1.00
2767;DHT22;1391;46.74287300;11.63683300;2024-03-23T14:01:49;13.60;1.00
2767;DHT22;1391;46.74287300;11.63683300;2024-03-23T14:04:17;13.50;1.00
2767;DHT22;1391;46.74287300;11.63683300;2024-03-23T14:06:47;13.00;1.00
2767;DHT22;1391;46.74287300;11.63683300;2024-03-23T14:09:13;12.60;1.00
2767;DHT22;1391;46.74287300;11.63683300;2024-03-23T14:11:46;12.20;1.00
2767;DHT22;1391;46.74287300;11.63683300;2024-03-23T14:14:15;12.10;1.00
2767;DHT22;1391;46.74287300;11.63683300;2024-03-23T14:16:42;11.60;1.00
2767;DHT22;1391;46.74287300;11.63683300;2024-03-23T14:19:09;11.70;1.00
2767;DHT22;1391;46.74287300;11.63683300;2024-03-23T14:21:36;11.50;1.00
2767;DHT22;1391;46.74287300;11.63683300;2024-03-23T14:24:03;11.20;1.00
2767;DHT22;1391;46.74287300;11.63683300;2024-03-23T14:26:31;11.70;1.00
2767;DHT22;1391;46.74287300;11.63683300;2024-03-23T14:28:57;11.50;1.00
2767;DHT22;1391;46.74287300;11.63683300;2024-03-23T14:31:26;11.50;1.00
2767;DHT22;1391;46.74287300;11.63683300;2024-03-23T14:33:53;10.40;1.00
2767;DHT22;1391;46.74287300;11.63683300;2024-03-23T14:36:20;9.10;1.00
2767;DHT22;1391;46.74287300;11.63683300;2024-03-23T14:38:47;8.60;5.20
2767;DHT22;1391;46.74287300;11.63683300;2024-03-23T14:41:15;8.40;15.50
2767;DHT22;1391;46.74287300;11.63683300;2024-03-23T14:43:41;8.10;10.60
2767;DHT22;1391;46.74287300;11.63683300;2024-03-23T14:46:10;8.30;13.70